sensor_id;sensor_type;location;lat;lon;timestamp;P1;durP1;ratioP1;P2;durP2;ratioP2
44762;SDS011;30483;49.576;6.036;2024-01-30T04:05:01;4.15;;;3.60;;
44762;SDS011;30483;49.576;6.036;2024-01-30T04:07:27;3.63;;;3.30;;
44762;SDS011;30483;49.576;6.036;2024-01-30T04:09:52;4.00;;;3.60;;
44762;SDS011;30483;49.576;6.036;2024-01-30T04:12:18;4.95;;;3.65;;
44762;SDS011;30483;49.576;6.036;2024-01-30T04:14:43;3.85;;;3.55;;
44762;SDS011;30483;49.576;6.036;2024-01-30T04:17:09;3.85;;;3.38;;
44762;SDS011;30483;49.576;6.036;2024-01-30T04:19:37;3.78;;;3.30;;
44762;SDS011;30483;49.576;6.036;2024-01-30T04:22:03;3.83;;;3.42;;
44762;SDS011;30483;49.576;6.036;2024-01-30T04:24:29;4.00;;;3.35;;
44762;SDS011;30483;49.576;6.036;2024-01-30T04:26:54;4.20;;;3.80;;
44762;SDS011;30483;49.576;6.036;2024-01-30T04:29:20;4.30;;;3.63;;
44762;SDS011;30483;49.576;6.036;2024-01-30T04:31:47;3.67;;;3.35;;
44762;SDS011;30483;49.576;6.036;2024-01-30T04:34:13;3.85;;;3.42;;
44762;SDS011;30483;49.576;6.036;2024-01-30T04:36:38;4.03;;;3.60;;
44762;SDS011;30483;49.576;6.036;2024-01-30T04:39:04;4.05;;;3.65;;
44762;SDS011;30483;49.576;6.036;2024-01-30T04:41:29;4.00;;;3.45;;
44762;SDS011;30483;49.576;6.036;2024-01-30T04:43:56;4.88;;;3.50;;
44762;SDS011;30483;49.576;6.036;2024-01-30T04:46:22;3.55;;;3.25;;
44762;SDS011;30483;49.576;6.036;2024-01-30T04:48:48;3.53;;;3.10;;
44762;SDS011;30483;49.576;6.036;2024-01-30T04:51:14;3.95;;;3.50;;
44762;SDS011;30483;49.576;6.036;2024-01-30T04:53:39;3.72;;;3.10;;
44762;SDS011;30483;49.576;6.036;2024-01-30T04:56:05;4.40;;;3.67;;
44762;SDS011;30483;49.576;6.036;2024-01-30T04:58:31;3.75;;;3.40;;
44762;SDS011;30483;49.576;6.036;2024-01-30T05:00:56;4.05;;;3.17;;
44762;SDS011;30483;49.576;6.036;2024-01-30T05:03:22;3.78;;;3.35;;
44762;SDS011;30483;49.576;6.036;2024-01-30T05:05:49;3.80;;;3.40;;
44762;SDS011;30483;49.576;6.036;2024-01-30T05:08:14;5.22;;;3.38;;
44762;SDS011;30483;49.576;6.036;2024-01-30T05:10:40;3.75;;;3.45;;
44762;SDS011;30483;49.576;6.036;2024-01-30T05:13:06;4.22;;;3.33;;
44762;SDS011;30483;49.576;6.036;2024-01-30T05:15:31;4.45;;;3.40;;
44762;SDS011;30483;49.576;6.036;2024-01-30T05:17:57;3.97;;;3.58;;
44762;SDS011;30483;49.576;6.036;2024-01-30T05:20:22;3.78;;;3.28;;
44762;SDS011;30483;49.576;6.036;2024-01-30T05:22:48;4.75;;;3.78;;
44762;SDS011;30483;49.576;6.036;2024-01-30T05:25:14;3.83;;;3.30;;
44762;SDS011;30483;49.576;6.036;2024-01-30T05:27:39;3.53;;;3.22;;
44762;SDS011;30483;49.576;6.036;2024-01-30T05:30:06;3.50;;;3.20;;
44762;SDS011;30483;49.576;6.036;2024-01-30T05:32:32;3.60;;;3.30;;
44762;SDS011;30483;49.576;6.036;2024-01-30T05:34:57;3.50;;;3.20;;
44762;SDS011;30483;49.576;6.036;2024-01-30T05:37:23;4.30;;;3.53;;
44762;SDS011;30483;49.576;6.036;2024-01-30T05:39:49;3.40;;;3.10;;
44762;SDS011;30483;49.576;6.036;2024-01-30T05:42:14;3.50;;;3.10;;
44762;SDS011;30483;49.576;6.036;2024-01-30T05:44:41;4.32;;;3.72;;
44762;SDS011;30483;49.576;6.036;2024-01-30T05:47:07;5.35;;;3.40;;
44762;SDS011;30483;49.576;6.036;2024-01-30T05:49:33;4.00;;;3.30;;
44762;SDS011;30483;49.576;6.036;2024-01-30T05:51:59;3.55;;;3.08;;
44762;SDS011;30483;49.576;6.036;2024-01-30T05:54:27;4.20;;;3.80;;
44762;SDS011;30483;49.576;6.036;2024-01-30T05:56:52;4.53;;;3.80;;
44762;SDS011;30483;49.576;6.036;2024-01-30T05:59:18;3.00;;;2.80;;
44762;SDS011;30483;49.576;6.036;2024-01-30T06:01:46;3.50;;;2.88;;
44762;SDS011;30483;49.576;6.036;2024-01-30T06:04:12;10.50;;;6.53;;
44762;SDS011;30483;49.576;6.036;2024-01-30T06:06:38;11.93;;;8.98;;
44762;SDS011;30483;49.576;6.036;2024-01-30T06:09:04;11.75;;;9.15;;
44762;SDS011;30483;49.576;6.036;2024-01-30T06:11:29;10.82;;;8.50;;
44762;SDS011;30483;49.576;6.036;2024-01-30T06:13:55;11.50;;;8.55;;
44762;SDS011;30483;49.576;6.036;2024-01-30T06:16:21;10.15;;;7.20;;
44762;SDS011;30483;49.576;6.036;2024-01-30T06:18:47;9.73;;;7.38;;
44762;SDS011;30483;49.576;6.036;2024-01-30T06:21:13;12.85;;;7.55;;
44762;SDS011;30483;49.576;6.036;2024-01-30T06:23:39;10.60;;;5.53;;
44762;SDS011;30483;49.576;6.036;2024-01-30T06:26:06;12.60;;;9.90;;
44762;SDS011;30483;49.576;6.036;2024-01-30T06:28:32;13.65;;;9.60;;
44762;SDS011;30483;49.576;6.036;2024-01-30T06:30:57;16.25;;;9.60;;
44762;SDS011;30483;49.576;6.036;2024-01-30T06:33:23;13.90;;;10.07;;
44762;SDS011;30483;49.576;6.036;2024-01-30T06:35:48;17.20;;;10.20;;
44762;SDS011;30483;49.576;6.036;2024-01-30T06:38:14;13.55;;;9.25;;
44762;SDS011;30483;49.576;6.036;2024-01-30T06:40:40;13.90;;;9.35;;
44762;SDS011;30483;49.576;6.036;2024-01-30T06:43:06;13.18;;;9.60;;
44762;SDS011;30483;49.576;6.036;2024-01-30T06:45:32;13.40;;;9.27;;
44762;SDS011;30483;49.576;6.036;2024-01-30T06:47:59;12.88;;;9.25;;
44762;SDS011;30483;49.576;6.036;2024-01-30T06:50:26;13.15;;;8.90;;
44762;SDS011;30483;49.576;6.036;2024-01-30T06:52:52;12.20;;;8.80;;
44762;SDS011;30483;49.576;6.036;2024-01-30T06:55:18;12.57;;;8.93;;
44762;SDS011;30483;49.576;6.036;2024-01-30T06:57:43;15.23;;;8.95;;
44762;SDS011;30483;49.576;6.036;2024-01-30T07:00:09;11.07;;;8.27;;
44762;SDS011;30483;49.576;6.036;2024-01-30T07:02:35;11.13;;;7.72;;
44762;SDS011;30483;49.576;6.036;2024-01-30T07:05:01;11.02;;;7.82;;
44762;SDS011;30483;49.576;6.036;2024-01-30T07:07:28;11.05;;;8.10;;
44762;SDS011;30483;49.576;6.036;2024-01-30T07:09:54;11.23;;;8.10;;
44762;SDS011;30483;49.576;6.036;2024-01-30T07:12:22;11.30;;;8.35;;
44762;SDS011;30483;49.576;6.036;2024-01-30T07:14:49;11.15;;;8.40;;
44762;SDS011;30483;49.576;6.036;2024-01-30T07:17:15;11.25;;;7.45;;
44762;SDS011;30483;49.576;6.036;2024-01-30T07:19:41;10.68;;;7.70;;
44762;SDS011;30483;49.576;6.036;2024-01-30T07:22:07;10.85;;;7.85;;
44762;SDS011;30483;49.576;6.036;2024-01-30T07:24:33;8.88;;;7.25;;
44762;SDS011;30483;49.576;6.036;2024-01-30T07:26:58;9.75;;;7.75;;
44762;SDS011;30483;49.576;6.036;2024-01-30T07:29:24;12.10;;;8.07;;
44762;SDS011;30483;49.576;6.036;2024-01-30T07:31:50;11.32;;;7.80;;
44762;SDS011;30483;49.576;6.036;2024-01-30T07:34:15;10.45;;;7.65;;
44762;SDS011;30483;49.576;6.036;2024-01-30T07:36:41;11.38;;;7.88;;
44762;SDS011;30483;49.576;6.036;2024-01-30T07:39:07;10.77;;;7.78;;
44762;SDS011;30483;49.576;6.036;2024-01-30T07:41:32;10.40;;;7.70;;
44762;SDS011;30483;49.576;6.036;2024-01-30T07:43:58;10.93;;;7.50;;
44762;SDS011;30483;49.576;6.036;2024-01-30T07:46:24;10.40;;;7.75;;
44762;SDS011;30483;49.576;6.036;2024-01-30T07:48:49;10.82;;;7.80;;
44762;SDS011;30483;49.576;6.036;2024-01-30T07:51:18;13.82;;;8.25;;
44762;SDS011;30483;49.576;6.036;2024-01-30T07:53:43;9.07;;;7.10;;
44762;SDS011;30483;49.576;6.036;2024-01-30T07:56:10;10.20;;;7.60;;
44762;SDS011;30483;49.576;6.036;2024-01-30T07:58:35;11.13;;;7.35;;
44762;SDS011;30483;49.576;6.036;2024-01-30T08:01:02;10.38;;;7.28;;
44762;SDS011;30483;49.576;6.036;2024-01-30T08:03:28;10.20;;;7.53;;
44762;SDS011;30483;49.576;6.036;2024-01-30T08:05:53;10.93;;;7.47;;
44762;SDS011;30483;49.576;6.036;2024-01-30T08:08:19;8.52;;;6.38;;
44762;SDS011;30483;49.576;6.036;2024-01-30T08:10:44;9.90;;;7.15;;
44762;SDS011;30483;49.576;6.036;2024-01-30T08:13:10;9.55;;;7.30;;
44762;SDS011;30483;49.576;6.036;2024-01-30T08:15:35;10.60;;;7.10;;
44762;SDS011;30483;49.576;6.036;2024-01-30T08:18:01;10.85;;;7.25;;
44762;SDS011;30483;49.576;6.036;2024-01-30T08:20:27;11.55;;;7.28;;
44762;SDS011;30483;49.576;6.036;2024-01-30T08:22:52;9.75;;;6.95;;
44762;SDS011;30483;49.576;6.036;2024-01-30T08:25:18;10.25;;;6.90;;
44762;SDS011;30483;49.576;6.036;2024-01-30T08:27:43;10.27;;;7.30;;
44762;SDS011;30483;49.576;6.036;2024-01-30T08:30:10;9.57;;;6.88;;
44762;SDS011;30483;49.576;6.036;2024-01-30T08:32:36;9.13;;;6.70;;
44762;SDS011;30483;49.576;6.036;2024-01-30T08:35:01;10.18;;;6.88;;
44762;SDS011;30483;49.576;6.036;2024-01-30T08:37:30;9.85;;;6.68;;
44762;SDS011;30483;49.576;6.036;2024-01-30T08:39:55;9.38;;;6.35;;
44762;SDS011;30483;49.576;6.036;2024-01-30T08:42:21;9.27;;;7.03;;
44762;SDS011;30483;49.576;6.036;2024-01-30T08:44:48;10.45;;;6.72;;
44762;SDS011;30483;49.576;6.036;2024-01-30T08:47:14;9.80;;;6.97;;
44762;SDS011;30483;49.576;6.036;2024-01-30T08:49:41;10.30;;;7.13;;
44762;SDS011;30483;49.576;6.036;2024-01-30T08:52:09;10.48;;;6.65;;
44762;SDS011;30483;49.576;6.036;2024-01-30T08:54:35;10.48;;;7.30;;
44762;SDS011;30483;49.576;6.036;2024-01-30T08:57:01;8.48;;;6.70;;
44762;SDS011;30483;49.576;6.036;2024-01-30T08:59:27;9.45;;;6.75;;
44762;SDS011;30483;49.576;6.036;2024-01-30T09:01:52;9.57;;;6.75;;
44762;SDS011;30483;49.576;6.036;2024-01-30T09:04:20;9.88;;;6.95;;
44762;SDS011;30483;49.576;6.036;2024-01-30T09:06:46;10.20;;;6.97;;
44762;SDS011;30483;49.576;6.036;2024-01-30T09:09:12;8.93;;;6.55;;
44762;SDS011;30483;49.576;6.036;2024-01-30T09:11:39;9.00;;;6.50;;
44762;SDS011;30483;49.576;6.036;2024-01-30T09:14:05;9.90;;;6.60;;
44762;SDS011;30483;49.576;6.036;2024-01-30T09:16:30;9.20;;;6.82;;
44762;SDS011;30483;49.576;6.036;2024-01-30T09:18:56;10.85;;;7.40;;
44762;SDS011;30483;49.576;6.036;2024-01-30T09:21:21;8.23;;;6.18;;
44762;SDS011;30483;49.576;6.036;2024-01-30T09:23:48;9.30;;;6.35;;
44762;SDS011;30483;49.576;6.036;2024-01-30T09:26:13;9.52;;;6.93;;
44762;SDS011;30483;49.576;6.036;2024-01-30T09:28:39;10.75;;;7.05;;
44762;SDS011;30483;49.576;6.036;2024-01-30T09:31:10;10.98;;;6.55;;
44762;SDS011;30483;49.576;6.036;2024-01-30T09:33:37;11.68;;;7.00;;
44762;SDS011;30483;49.576;6.036;2024-01-30T09:36:03;7.80;;;6.28;;
44762;SDS011;30483;49.576;6.036;2024-01-30T09:38:30;11.32;;;7.15;;
44762;SDS011;30483;49.576;6.036;2024-01-30T09:40:55;9.10;;;6.93;;
44762;SDS011;30483;49.576;6.036;2024-01-30T09:43:22;8.50;;;6.60;;
44762;SDS011;30483;49.576;6.036;2024-01-30T09:45:49;10.65;;;6.50;;
44762;SDS011;30483;49.576;6.036;2024-01-30T09:48:15;8.98;;;6.10;;
44762;SDS011;30483;49.576;6.036;2024-01-30T09:50:41;9.77;;;6.97;;
44762;SDS011;30483;49.576;6.036;2024-01-30T09:53:10;8.18;;;6.60;;
44762;SDS011;30483;49.576;6.036;2024-01-30T09:55:38;9.38;;;6.85;;
44762;SDS011;30483;49.576;6.036;2024-01-30T09:58:07;7.57;;;6.22;;
44762;SDS011;30483;49.576;6.036;2024-01-30T10:00:33;7.95;;;6.35;;
44762;SDS011;30483;49.576;6.036;2024-01-30T10:02:59;8.85;;;6.53;;
44762;SDS011;30483;49.576;6.036;2024-01-30T10:05:26;9.82;;;6.80;;
44762;SDS011;30483;49.576;6.036;2024-01-30T10:07:56;10.00;;;6.57;;
44762;SDS011;30483;49.576;6.036;2024-01-30T10:10:22;9.65;;;6.15;;
44762;SDS011;30483;49.576;6.036;2024-01-30T10:12:49;8.88;;;6.50;;
44762;SDS011;30483;49.576;6.036;2024-01-30T10:15:15;9.65;;;6.57;;
44762;SDS011;30483;49.576;6.036;2024-01-30T10:17:42;10.75;;;6.75;;
44762;SDS011;30483;49.576;6.036;2024-01-30T10:20:07;8.23;;;6.10;;
44762;SDS011;30483;49.576;6.036;2024-01-30T10:22:33;9.65;;;6.75;;
44762;SDS011;30483;49.576;6.036;2024-01-30T10:25:00;9.82;;;6.55;;
44762;SDS011;30483;49.576;6.036;2024-01-30T10:27:26;8.23;;;6.18;;
44762;SDS011;30483;49.576;6.036;2024-01-30T10:29:52;9.68;;;6.43;;
44762;SDS011;30483;49.576;6.036;2024-01-30T10:32:18;7.63;;;6.40;;
44762;SDS011;30483;49.576;6.036;2024-01-30T10:34:44;8.60;;;6.35;;
44762;SDS011;30483;49.576;6.036;2024-01-30T10:37:10;10.48;;;6.38;;
44762;SDS011;30483;49.576;6.036;2024-01-30T10:39:38;9.18;;;6.35;;
44762;SDS011;30483;49.576;6.036;2024-01-30T10:42:05;8.80;;;6.32;;
44762;SDS011;30483;49.576;6.036;2024-01-30T10:44:36;8.00;;;6.13;;
44762;SDS011;30483;49.576;6.036;2024-01-30T10:47:11;7.88;;;6.13;;
44762;SDS011;30483;49.576;6.036;2024-01-30T10:49:38;7.60;;;6.10;;
44762;SDS011;30483;49.576;6.036;2024-01-30T10:52:05;7.93;;;6.15;;
44762;SDS011;30483;49.576;6.036;2024-01-30T10:54:33;9.10;;;6.63;;
44762;SDS011;30483;49.576;6.036;2024-01-30T10:57:01;8.10;;;6.00;;
44762;SDS011;30483;49.576;6.036;2024-01-30T10:59:28;8.70;;;5.90;;
44762;SDS011;30483;49.576;6.036;2024-01-30T11:01:56;8.73;;;6.05;;
44762;SDS011;30483;49.576;6.036;2024-01-30T11:04:22;7.30;;;5.55;;
44762;SDS011;30483;49.576;6.036;2024-01-30T11:06:50;7.90;;;5.55;;
44762;SDS011;30483;49.576;6.036;2024-01-30T11:09:16;8.35;;;5.78;;
44762;SDS011;30483;49.576;6.036;2024-01-30T11:11:56;9.10;;;5.82;;
44762;SDS011;30483;49.576;6.036;2024-01-30T11:14:25;9.35;;;5.97;;
44762;SDS011;30483;49.576;6.036;2024-01-30T11:16:51;7.30;;;5.47;;
44762;SDS011;30483;49.576;6.036;2024-01-30T11:19:24;7.15;;;5.28;;
44762;SDS011;30483;49.576;6.036;2024-01-30T11:21:53;8.13;;;5.72;;
44762;SDS011;30483;49.576;6.036;2024-01-30T11:24:21;8.43;;;5.30;;
44762;SDS011;30483;49.576;6.036;2024-01-30T11:26:56;7.20;;;5.40;;
44762;SDS011;30483;49.576;6.036;2024-01-30T11:29:30;8.02;;;5.82;;
44762;SDS011;30483;49.576;6.036;2024-01-30T11:31:56;7.28;;;5.30;;
44762;SDS011;30483;49.576;6.036;2024-01-30T11:34:22;8.35;;;5.40;;
44762;SDS011;30483;49.576;6.036;2024-01-30T11:36:51;7.80;;;5.55;;
44762;SDS011;30483;49.576;6.036;2024-01-30T11:39:20;7.03;;;5.28;;
44762;SDS011;30483;49.576;6.036;2024-01-30T11:41:47;9.00;;;5.72;;
44762;SDS011;30483;49.576;6.036;2024-01-30T11:44:16;5.22;;;3.20;;
44762;SDS011;30483;49.576;6.036;2024-01-30T11:46:42;8.52;;;4.38;;
44762;SDS011;30483;49.576;6.036;2024-01-30T11:49:08;9.60;;;4.88;;
44762;SDS011;30483;49.576;6.036;2024-01-30T11:51:33;6.28;;;4.68;;
44762;SDS011;30483;49.576;6.036;2024-01-30T11:53:59;7.53;;;4.38;;
44762;SDS011;30483;49.576;6.036;2024-01-30T11:56:25;8.43;;;4.60;;
44762;SDS011;30483;49.576;6.036;2024-01-30T11:58:51;5.90;;;4.28;;
44762;SDS011;30483;49.576;6.036;2024-01-30T12:01:17;5.47;;;4.30;;
44762;SDS011;30483;49.576;6.036;2024-01-30T12:03:48;5.50;;;4.15;;
44762;SDS011;30483;49.576;6.036;2024-01-30T12:06:15;7.10;;;4.47;;
44762;SDS011;30483;49.576;6.036;2024-01-30T12:08:41;6.57;;;3.97;;
44762;SDS011;30483;49.576;6.036;2024-01-30T12:11:07;6.53;;;4.22;;
44762;SDS011;30483;49.576;6.036;2024-01-30T12:13:32;5.25;;;4.18;;
44762;SDS011;30483;49.576;6.036;2024-01-30T12:15:58;6.60;;;3.75;;
44762;SDS011;30483;49.576;6.036;2024-01-30T12:18:25;7.47;;;4.07;;
44762;SDS011;30483;49.576;6.036;2024-01-30T12:20:58;6.50;;;3.70;;
44762;SDS011;30483;49.576;6.036;2024-01-30T12:23:24;5.40;;;3.88;;
44762;SDS011;30483;49.576;6.036;2024-01-30T12:25:51;4.95;;;3.72;;
44762;SDS011;30483;49.576;6.036;2024-01-30T12:28:17;5.00;;;3.55;;
44762;SDS011;30483;49.576;6.036;2024-01-30T12:30:43;6.25;;;4.03;;
44762;SDS011;30483;49.576;6.036;2024-01-30T12:33:09;5.47;;;3.90;;
44762;SDS011;30483;49.576;6.036;2024-01-30T12:35:35;5.72;;;3.53;;
44762;SDS011;30483;49.576;6.036;2024-01-30T12:38:01;7.03;;;3.78;;
44762;SDS011;30483;49.576;6.036;2024-01-30T12:40:27;5.88;;;3.88;;
44762;SDS011;30483;49.576;6.036;2024-01-30T12:42:53;4.50;;;3.30;;
44762;SDS011;30483;49.576;6.036;2024-01-30T12:45:19;5.10;;;3.63;;
44762;SDS011;30483;49.576;6.036;2024-01-30T12:47:47;5.85;;;3.58;;
44762;SDS011;30483;49.576;6.036;2024-01-30T12:50:13;4.97;;;3.55;;
44762;SDS011;30483;49.576;6.036;2024-01-30T12:52:41;5.78;;;4.00;;
44762;SDS011;30483;49.576;6.036;2024-01-30T12:55:07;5.40;;;3.60;;
44762;SDS011;30483;49.576;6.036;2024-01-30T12:57:33;5.93;;;3.50;;
44762;SDS011;30483;49.576;6.036;2024-01-30T12:59:59;4.90;;;3.50;;
44762;SDS011;30483;49.576;6.036;2024-01-30T13:02:24;5.25;;;3.40;;
44762;SDS011;30483;49.576;6.036;2024-01-30T13:04:51;5.97;;;3.70;;
44762;SDS011;30483;49.576;6.036;2024-01-30T13:07:17;4.18;;;3.25;;
44762;SDS011;30483;49.576;6.036;2024-01-30T13:09:43;4.20;;;3.50;;
44762;SDS011;30483;49.576;6.036;2024-01-30T13:12:09;5.57;;;3.65;;
44762;SDS011;30483;49.576;6.036;2024-01-30T13:14:34;6.20;;;3.75;;
44762;SDS011;30483;49.576;6.036;2024-01-30T13:17:00;5.43;;;3.63;;
44762;SDS011;30483;49.576;6.036;2024-01-30T13:19:25;4.43;;;3.53;;
44762;SDS011;30483;49.576;6.036;2024-01-30T13:21:52;4.32;;;3.22;;
44762;SDS011;30483;49.576;6.036;2024-01-30T13:24:17;5.57;;;3.72;;
44762;SDS011;30483;49.576;6.036;2024-01-30T13:26:46;4.47;;;3.45;;
44762;SDS011;30483;49.576;6.036;2024-01-30T13:29:12;5.57;;;4.07;;
44762;SDS011;30483;49.576;6.036;2024-01-30T13:31:37;5.75;;;3.70;;
44762;SDS011;30483;49.576;6.036;2024-01-30T13:34:04;5.65;;;3.80;;
44762;SDS011;30483;49.576;6.036;2024-01-30T13:36:31;6.47;;;4.10;;
44762;SDS011;30483;49.576;6.036;2024-01-30T13:38:57;6.00;;;3.63;;
44762;SDS011;30483;49.576;6.036;2024-01-30T13:41:23;4.63;;;3.50;;
44762;SDS011;30483;49.576;6.036;2024-01-30T13:43:48;5.78;;;3.88;;
44762;SDS011;30483;49.576;6.036;2024-01-30T13:46:14;6.50;;;3.97;;
44762;SDS011;30483;49.576;6.036;2024-01-30T13:48:40;5.55;;;3.92;;
44762;SDS011;30483;49.576;6.036;2024-01-30T13:51:05;6.57;;;4.18;;
44762;SDS011;30483;49.576;6.036;2024-01-30T13:53:31;6.65;;;3.90;;
44762;SDS011;30483;49.576;6.036;2024-01-30T13:55:56;5.35;;;3.72;;
44762;SDS011;30483;49.576;6.036;2024-01-30T13:58:22;6.35;;;4.13;;
44762;SDS011;30483;49.576;6.036;2024-01-30T14:00:47;5.50;;;3.85;;
44762;SDS011;30483;49.576;6.036;2024-01-30T14:03:14;7.57;;;3.72;;
44762;SDS011;30483;49.576;6.036;2024-01-30T14:05:39;7.35;;;4.15;;
44762;SDS011;30483;49.576;6.036;2024-01-30T14:08:05;7.38;;;4.90;;
44762;SDS011;30483;49.576;6.036;2024-01-30T14:10:32;6.90;;;4.30;;
44762;SDS011;30483;49.576;6.036;2024-01-30T14:12:58;8.38;;;4.60;;
44762;SDS011;30483;49.576;6.036;2024-01-30T14:15:23;10.80;;;4.93;;
44762;SDS011;30483;49.576;6.036;2024-01-30T14:17:49;9.45;;;4.78;;
44762;SDS011;30483;49.576;6.036;2024-01-30T14:20:15;7.55;;;4.63;;
44762;SDS011;30483;49.576;6.036;2024-01-30T14:22:43;9.27;;;4.90;;
44762;SDS011;30483;49.576;6.036;2024-01-30T14:25:09;8.18;;;4.72;;
44762;SDS011;30483;49.576;6.036;2024-01-30T14:27:35;8.40;;;5.00;;
44762;SDS011;30483;49.576;6.036;2024-01-30T14:30:01;8.02;;;4.85;;
44762;SDS011;30483;49.576;6.036;2024-01-30T14:32:28;6.43;;;4.20;;
44762;SDS011;30483;49.576;6.036;2024-01-30T14:34:53;6.22;;;4.80;;
44762;SDS011;30483;49.576;6.036;2024-01-30T14:37:20;9.73;;;5.10;;
44762;SDS011;30483;49.576;6.036;2024-01-30T14:39:46;7.00;;;4.50;;
44762;SDS011;30483;49.576;6.036;2024-01-30T14:42:13;6.47;;;4.78;;
44762;SDS011;30483;49.576;6.036;2024-01-30T14:44:38;7.57;;;4.80;;
44762;SDS011;30483;49.576;6.036;2024-01-30T14:47:04;6.35;;;4.70;;
44762;SDS011;30483;49.576;6.036;2024-01-30T14:49:30;7.22;;;4.72;;
44762;SDS011;30483;49.576;6.036;2024-01-30T14:51:56;8.02;;;4.82;;
44762;SDS011;30483;49.576;6.036;2024-01-30T14:54:23;7.75;;;4.60;;
44762;SDS011;30483;49.576;6.036;2024-01-30T14:56:49;7.32;;;4.47;;
44762;SDS011;30483;49.576;6.036;2024-01-30T14:59:15;7.45;;;4.88;;
44762;SDS011;30483;49.576;6.036;2024-01-30T15:01:41;6.70;;;4.45;;
44762;SDS011;30483;49.576;6.036;2024-01-30T15:04:06;6.72;;;4.50;;
44762;SDS011;30483;49.576;6.036;2024-01-30T15:06:32;6.15;;;4.35;;
44762;SDS011;30483;49.576;6.036;2024-01-30T15:08:58;8.45;;;4.95;;
44762;SDS011;30483;49.576;6.036;2024-01-30T15:11:24;8.60;;;4.47;;
44762;SDS011;30483;49.576;6.036;2024-01-30T15:13:49;7.68;;;4.85;;
44762;SDS011;30483;49.576;6.036;2024-01-30T15:16:15;9.60;;;5.22;;
44762;SDS011;30483;49.576;6.036;2024-01-30T15:18:41;5.68;;;4.53;;
44762;SDS011;30483;49.576;6.036;2024-01-30T15:21:06;7.25;;;4.60;;
44762;SDS011;30483;49.576;6.036;2024-01-30T15:23:32;8.43;;;4.78;;
44762;SDS011;30483;49.576;6.036;2024-01-30T15:25:57;7.72;;;4.75;;
44762;SDS011;30483;49.576;6.036;2024-01-30T15:28:33;7.82;;;4.50;;
44762;SDS011;30483;49.576;6.036;2024-01-30T15:31:01;7.85;;;4.50;;
44762;SDS011;30483;49.576;6.036;2024-01-30T15:33:27;6.68;;;4.50;;
44762;SDS011;30483;49.576;6.036;2024-01-30T15:35:53;7.90;;;4.72;;
44762;SDS011;30483;49.576;6.036;2024-01-30T15:38:18;8.52;;;4.72;;
44762;SDS011;30483;49.576;6.036;2024-01-30T15:40:46;7.88;;;4.45;;
44762;SDS011;30483;49.576;6.036;2024-01-30T15:43:12;8.68;;;4.65;;
44762;SDS011;30483;49.576;6.036;2024-01-30T15:45:37;7.57;;;4.50;;
44762;SDS011;30483;49.576;6.036;2024-01-30T15:48:03;5.88;;;4.53;;
44762;SDS011;30483;49.576;6.036;2024-01-30T15:50:29;6.65;;;4.55;;
44762;SDS011;30483;49.576;6.036;2024-01-30T15:52:55;5.38;;;4.18;;
44762;SDS011;30483;49.576;6.036;2024-01-30T15:55:20;8.43;;;4.72;;
44762;SDS011;30483;49.576;6.036;2024-01-30T15:57:46;6.40;;;4.40;;
44762;SDS011;30483;49.576;6.036;2024-01-30T16:00:12;6.57;;;4.60;;
44762;SDS011;30483;49.576;6.036;2024-01-30T16:02:38;8.50;;;4.50;;
44762;SDS011;30483;49.576;6.036;2024-01-30T16:05:03;7.25;;;4.93;;
44762;SDS011;30483;49.576;6.036;2024-01-30T16:07:30;7.53;;;4.88;;
44762;SDS011;30483;49.576;6.036;2024-01-30T16:09:57;7.53;;;4.60;;
44762;SDS011;30483;49.576;6.036;2024-01-30T16:12:23;7.38;;;4.70;;
44762;SDS011;30483;49.576;6.036;2024-01-30T16:14:49;8.13;;;4.80;;
44762;SDS011;30483;49.576;6.036;2024-01-30T16:17:15;7.80;;;4.43;;
44762;SDS011;30483;49.576;6.036;2024-01-30T16:19:40;9.75;;;4.70;;
44762;SDS011;30483;49.576;6.036;2024-01-30T16:22:06;10.05;;;4.47;;
44762;SDS011;30483;49.576;6.036;2024-01-30T16:24:32;7.35;;;4.10;;
44762;SDS011;30483;49.576;6.036;2024-01-30T16:26:57;9.95;;;4.05;;
44762;SDS011;30483;49.576;6.036;2024-01-30T16:29:23;8.48;;;4.00;;
44762;SDS011;30483;49.576;6.036;2024-01-30T16:31:48;10.20;;;4.28;;
44762;SDS011;30483;49.576;6.036;2024-01-30T16:34:14;9.63;;;4.65;;
44762;SDS011;30483;49.576;6.036;2024-01-30T16:36:39;8.73;;;4.65;;
44762;SDS011;30483;49.576;6.036;2024-01-30T16:39:05;7.75;;;4.38;;
44762;SDS011;30483;49.576;6.036;2024-01-30T16:41:31;6.15;;;4.20;;
44762;SDS011;30483;49.576;6.036;2024-01-30T16:43:56;7.15;;;4.18;;
44762;SDS011;30483;49.576;6.036;2024-01-30T16:46:22;7.32;;;4.30;;
44762;SDS011;30483;49.576;6.036;2024-01-30T16:48:48;8.10;;;3.80;;
44762;SDS011;30483;49.576;6.036;2024-01-30T16:51:16;8.02;;;4.00;;
44762;SDS011;30483;49.576;6.036;2024-01-30T16:53:42;5.97;;;3.67;;
44762;SDS011;30483;49.576;6.036;2024-01-30T16:56:09;5.55;;;3.55;;
44762;SDS011;30483;49.576;6.036;2024-01-30T16:58:34;6.65;;;3.80;;
44762;SDS011;30483;49.576;6.036;2024-01-30T17:01:00;5.72;;;3.75;;
44762;SDS011;30483;49.576;6.036;2024-01-30T17:03:26;6.95;;;3.92;;
44762;SDS011;30483;49.576;6.036;2024-01-30T17:05:51;7.60;;;4.00;;
44762;SDS011;30483;49.576;6.036;2024-01-30T17:08:21;7.25;;;3.80;;
44762;SDS011;30483;49.576;6.036;2024-01-30T17:10:46;6.97;;;3.67;;
44762;SDS011;30483;49.576;6.036;2024-01-30T17:13:12;7.32;;;3.60;;
44762;SDS011;30483;49.576;6.036;2024-01-30T17:15:37;6.22;;;3.30;;
44762;SDS011;30483;49.576;6.036;2024-01-30T17:18:03;5.72;;;3.42;;
44762;SDS011;30483;49.576;6.036;2024-01-30T17:20:29;6.93;;;3.85;;
44762;SDS011;30483;49.576;6.036;2024-01-30T17:22:55;7.93;;;3.80;;
44762;SDS011;30483;49.576;6.036;2024-01-30T17:25:20;7.13;;;3.25;;
44762;SDS011;30483;49.576;6.036;2024-01-30T17:27:46;7.45;;;3.70;;
44762;SDS011;30483;49.576;6.036;2024-01-30T17:30:12;7.82;;;3.50;;
44762;SDS011;30483;49.576;6.036;2024-01-30T17:32:39;5.18;;;3.15;;
44762;SDS011;30483;49.576;6.036;2024-01-30T17:35:04;5.93;;;3.40;;
44762;SDS011;30483;49.576;6.036;2024-01-30T17:37:30;5.28;;;3.22;;
44762;SDS011;30483;49.576;6.036;2024-01-30T17:39:56;5.20;;;3.55;;
44762;SDS011;30483;49.576;6.036;2024-01-30T17:42:22;6.18;;;3.60;;
44762;SDS011;30483;49.576;6.036;2024-01-30T17:44:48;5.90;;;3.63;;
44762;SDS011;30483;49.576;6.036;2024-01-30T17:47:14;6.30;;;3.38;;
44762;SDS011;30483;49.576;6.036;2024-01-30T17:49:41;4.40;;;3.10;;
44762;SDS011;30483;49.576;6.036;2024-01-30T17:52:06;6.72;;;3.30;;
44762;SDS011;30483;49.576;6.036;2024-01-30T17:54:33;4.93;;;3.60;;
44762;SDS011;30483;49.576;6.036;2024-01-30T17:56:58;6.03;;;3.38;;
44762;SDS011;30483;49.576;6.036;2024-01-30T17:59:24;4.95;;;3.22;;
44762;SDS011;30483;49.576;6.036;2024-01-30T18:01:50;5.25;;;3.42;;
44762;SDS011;30483;49.576;6.036;2024-01-30T18:04:17;5.82;;;3.40;;
44762;SDS011;30483;49.576;6.036;2024-01-30T18:06:51;5.22;;;3.25;;
44762;SDS011;30483;49.576;6.036;2024-01-30T18:09:20;4.80;;;3.40;;
44762;SDS011;30483;49.576;6.036;2024-01-30T18:11:46;6.90;;;3.55;;
44762;SDS011;30483;49.576;6.036;2024-01-30T18:14:12;9.07;;;3.75;;
44762;SDS011;30483;49.576;6.036;2024-01-30T18:16:38;3.90;;;3.30;;
44762;SDS011;30483;49.576;6.036;2024-01-30T18:19:03;6.63;;;3.63;;
44762;SDS011;30483;49.576;6.036;2024-01-30T18:21:29;6.32;;;3.58;;
44762;SDS011;30483;49.576;6.036;2024-01-30T18:23:55;5.55;;;3.53;;
44762;SDS011;30483;49.576;6.036;2024-01-30T18:26:21;6.30;;;3.65;;
44762;SDS011;30483;49.576;6.036;2024-01-30T18:28:47;5.72;;;3.55;;
44762;SDS011;30483;49.576;6.036;2024-01-30T18:31:14;4.63;;;3.50;;
44762;SDS011;30483;49.576;6.036;2024-01-30T18:33:40;5.57;;;3.80;;
44762;SDS011;30483;49.576;6.036;2024-01-30T18:36:06;4.10;;;3.47;;
44762;SDS011;30483;49.576;6.036;2024-01-30T18:38:32;5.30;;;3.70;;
44762;SDS011;30483;49.576;6.036;2024-01-30T18:40:58;3.90;;;3.22;;
44762;SDS011;30483;49.576;6.036;2024-01-30T18:43:24;4.05;;;3.22;;